createdAt,value
2022-10-11T00:01:13.672Z,19.79
2022-10-11T00:03:58.719Z,19.80
2022-10-11T00:06:44.000Z,19.80
2022-10-11T00:09:30.232Z,19.79
2022-10-11T00:12:15.458Z,19.80
2022-10-11T00:15:00.883Z,19.80
2022-10-11T00:17:46.196Z,19.79
2022-10-11T00:20:31.326Z,19.79
2022-10-11T00:23:17.294Z,19.79
2022-10-11T00:26:06.442Z,19.80
2022-10-11T00:28:52.960Z,19.79
2022-10-11T00:31:38.590Z,19.78
2022-10-11T00:34:24.379Z,19.79
2022-10-11T00:37:10.045Z,19.78
2022-10-11T00:39:55.251Z,19.78
2022-10-11T00:42:40.713Z,19.79
2022-10-11T00:45:26.268Z,19.78
2022-10-11T00:48:23.399Z,19.79
2022-10-11T00:51:43.617Z,19.78
2022-10-11T00:54:33.210Z,19.77
2022-10-11T00:57:22.401Z,19.77
2022-10-11T01:00:10.963Z,19.78
2022-10-11T01:02:56.862Z,19.78
2022-10-11T01:05:42.300Z,19.78
2022-10-11T01:08:27.920Z,19.78
2022-10-11T01:11:17.240Z,19.78
2022-10-11T01:14:36.431Z,19.78
2022-10-11T01:17:33.692Z,19.78
2022-10-11T01:20:30.874Z,19.79
2022-10-11T01:23:24.376Z,19.77
2022-10-11T01:26:18.827Z,19.78
2022-10-11T01:29:15.326Z,19.78
2022-10-11T01:32:21.787Z,19.78
2022-10-11T01:35:15.235Z,19.78
2022-10-11T01:38:07.258Z,19.77
2022-10-11T01:41:05.943Z,19.78
2022-10-11T01:44:00.315Z,19.77
2022-10-11T01:46:45.916Z,19.78
2022-10-11T01:49:31.331Z,19.79
2022-10-11T01:52:16.461Z,19.78
2022-10-11T01:55:14.065Z,19.78
2022-10-11T01:57:59.445Z,19.78
2022-10-11T02:01:10.851Z,19.79
2022-10-11T02:04:10.835Z,19.78
2022-10-11T02:07:15.836Z,19.79
2022-10-11T02:10:15.433Z,19.78
2022-10-11T02:13:07.958Z,19.79
2022-10-11T02:15:56.190Z,19.79
2022-10-11T02:18:47.064Z,19.78
2022-10-11T02:21:36.296Z,19.80
2022-10-11T02:24:27.655Z,19.78
2022-10-11T02:27:14.659Z,19.78
2022-10-11T02:30:02.772Z,19.79
2022-10-11T02:32:50.402Z,19.78
2022-10-11T02:35:42.057Z,19.77
2022-10-11T02:38:38.786Z,19.79
2022-10-11T02:41:38.605Z,19.78
2022-10-11T02:44:32.020Z,19.77
2022-10-11T02:47:17.709Z,19.78
2022-10-11T02:50:04.282Z,19.77
2022-10-11T02:52:49.562Z,19.76
2022-10-11T02:55:35.171Z,19.76
2022-10-11T02:58:21.963Z,19.76
2022-10-11T03:01:07.841Z,19.76
2022-10-11T03:03:52.913Z,19.76
2022-10-11T03:06:38.177Z,19.76
2022-10-11T03:09:23.450Z,19.76
2022-10-11T03:12:08.665Z,19.75
2022-10-11T03:14:54.674Z,19.76
2022-10-11T03:17:39.837Z,19.76
2022-10-11T03:20:25.263Z,19.75
2022-10-11T03:23:11.425Z,19.75
2022-10-11T03:25:57.064Z,19.76
2022-10-11T03:28:42.640Z,19.75
2022-10-11T03:31:27.866Z,19.73
2022-10-11T03:34:15.383Z,19.71
2022-10-11T03:37:00.789Z,19.71
2022-10-11T03:39:46.144Z,19.71
2022-10-11T03:42:31.609Z,19.71
2022-10-11T03:45:16.866Z,19.71
2022-10-11T03:48:02.419Z,19.71
2022-10-11T03:50:49.218Z,19.71
2022-10-11T03:53:34.731Z,19.71
2022-10-11T03:56:20.083Z,19.70
2022-10-11T03:59:05.316Z,19.72
2022-10-11T04:01:50.705Z,19.71
2022-10-11T04:04:36.039Z,19.72
2022-10-11T04:07:21.683Z,19.71
2022-10-11T04:10:08.223Z,19.71
2022-10-11T04:12:53.781Z,19.71
2022-10-11T04:15:39.490Z,19.71
2022-10-11T04:18:25.200Z,19.71
2022-10-11T04:21:10.452Z,19.72
2022-10-11T04:23:55.764Z,19.73
2022-10-11T04:26:41.049Z,19.73
2022-10-11T04:29:30.117Z,19.76
2022-10-11T04:32:17.877Z,19.78
2022-10-11T04:35:04.835Z,19.79
2022-10-11T04:37:50.599Z,19.83
2022-10-11T04:40:35.976Z,19.86
2022-10-11T04:43:21.804Z,19.91
2022-10-11T04:46:07.973Z,19.92
2022-10-11T04:48:54.099Z,20.00
2022-10-11T04:51:39.380Z,19.99
2022-10-11T04:54:24.667Z,20.00
2022-10-11T04:57:10.253Z,20.03
2022-10-11T04:59:56.086Z,20.04
2022-10-11T05:02:41.693Z,20.05
2022-10-11T05:05:26.888Z,20.07
2022-10-11T05:08:12.427Z,20.05
2022-10-11T05:11:04.118Z,20.04
2022-10-11T05:13:49.564Z,20.05
2022-10-11T05:16:34.742Z,20.05
2022-10-11T05:19:20.060Z,20.05
2022-10-11T05:22:05.341Z,20.05
2022-10-11T05:24:50.758Z,20.06
2022-10-11T05:27:35.914Z,20.05
2022-10-11T05:30:21.296Z,20.07
2022-10-11T05:33:06.647Z,20.04
2022-10-11T05:35:52.229Z,20.04
2022-10-11T05:38:38.659Z,20.05
2022-10-11T05:41:24.261Z,20.05
2022-10-11T05:44:09.491Z,20.04
2022-10-11T05:46:54.777Z,20.02
2022-10-11T05:49:40.215Z,20.03
2022-10-11T05:52:25.812Z,20.02
2022-10-11T05:55:11.292Z,20.02
2022-10-11T05:57:57.604Z,20.02
2022-10-11T06:00:42.831Z,20.00
2022-10-11T06:03:28.313Z,20.00
2022-10-11T06:06:13.889Z,19.99
2022-10-11T06:08:59.407Z,20.01
2022-10-11T06:11:45.547Z,20.02
2022-10-11T06:14:30.976Z,20.02
2022-10-11T06:17:16.294Z,20.01
2022-10-11T06:20:01.928Z,20.01
2022-10-11T06:22:47.463Z,20.00
2022-10-11T06:25:32.820Z,20.01
2022-10-11T06:28:18.055Z,19.99
2022-10-11T06:31:05.296Z,19.98
2022-10-11T06:33:51.108Z,19.98
2022-10-11T06:36:36.725Z,19.97
2022-10-11T06:39:22.061Z,19.97
2022-10-11T06:42:07.391Z,19.93
2022-10-11T06:44:52.923Z,19.93
2022-10-11T06:47:38.220Z,19.93
2022-10-11T06:50:47.205Z,19.94
2022-10-11T06:53:28.997Z,19.92
2022-10-11T06:56:14.335Z,19.91
2022-10-11T06:59:00.221Z,19.91
2022-10-11T07:01:45.551Z,19.92
2022-10-11T07:04:30.747Z,19.91
2022-10-11T07:07:15.979Z,19.91
2022-10-11T07:10:01.298Z,19.91
2022-10-11T07:12:46.655Z,19.90
2022-10-11T07:15:31.900Z,19.90
2022-10-11T07:18:17.177Z,19.92
2022-10-11T07:21:06.911Z,19.91
2022-10-11T07:23:52.696Z,19.91
2022-10-11T07:26:38.579Z,19.91
2022-10-11T07:29:24.817Z,19.92
2022-10-11T07:32:10.206Z,19.92
2022-10-11T07:34:56.608Z,19.91
2022-10-11T07:37:42.084Z,19.92
2022-10-11T07:40:27.080Z,19.93
2022-10-11T07:43:13.923Z,19.92
2022-10-11T07:46:04.445Z,19.92
2022-10-11T07:48:50.369Z,19.93
2022-10-11T07:51:35.566Z,19.93
2022-10-11T07:54:20.938Z,19.92
2022-10-11T07:57:06.039Z,19.93
2022-10-11T07:59:51.623Z,19.93
2022-10-11T08:02:36.845Z,19.93
2022-10-11T08:05:22.176Z,19.93
2022-10-11T08:08:07.526Z,19.93
2022-10-11T08:10:52.829Z,19.93
2022-10-11T08:13:38.407Z,19.92
2022-10-11T08:16:23.957Z,19.92
2022-10-11T08:19:10.552Z,19.94
2022-10-11T08:21:55.855Z,19.93
2022-10-11T08:24:41.071Z,19.94
2022-10-11T08:27:26.561Z,19.95
2022-10-11T08:30:12.611Z,19.96
2022-10-11T08:32:57.698Z,19.97
2022-10-11T08:35:43.052Z,19.96
2022-10-11T08:38:28.328Z,19.97
2022-10-11T08:41:22.632Z,19.96
2022-10-11T08:44:51.901Z,19.98
2022-10-11T08:47:45.182Z,19.97
2022-10-11T08:50:30.535Z,19.98
2022-10-11T08:53:28.746Z,19.96
2022-10-11T08:56:16.405Z,19.97
2022-10-11T08:59:15.471Z,19.97
2022-10-11T09:02:20.078Z,19.97
2022-10-11T09:05:06.337Z,19.97
2022-10-11T09:08:10.073Z,19.97
2022-10-11T09:11:04.494Z,19.97
2022-10-11T09:14:08.281Z,19.98
2022-10-11T09:17:04.571Z,19.97
2022-10-11T09:20:00.077Z,19.96
2022-10-11T09:23:04.912Z,19.98
2022-10-11T09:25:57.324Z,19.97
2022-10-11T09:29:01.181Z,19.98
2022-10-11T09:31:52.084Z,19.99
2022-10-11T09:34:38.113Z,19.98
2022-10-11T09:37:39.931Z,19.98
2022-10-11T09:40:35.354Z,19.98
2022-10-11T09:43:20.554Z,19.99
2022-10-11T09:46:20.648Z,19.98
2022-10-11T09:49:11.374Z,19.99
2022-10-11T09:52:00.232Z,20.00
2022-10-11T09:54:58.310Z,20.00
2022-10-11T09:57:54.578Z,20.00
2022-10-11T10:00:39.808Z,19.99
2022-10-11T10:03:36.472Z,20.01
2022-10-11T10:06:27.592Z,20.00
2022-10-11T10:09:30.231Z,20.00
2022-10-11T10:12:21.725Z,20.02
2022-10-11T10:15:23.424Z,20.02
2022-10-11T10:18:24.482Z,20.02
2022-10-11T10:21:14.703Z,20.02
2022-10-11T10:24:04.695Z,20.03
2022-10-11T10:27:07.046Z,20.02
2022-10-11T10:30:07.853Z,20.03
2022-10-11T10:33:11.609Z,20.05
2022-10-11T10:36:04.399Z,20.06
2022-10-11T10:38:56.427Z,20.05
2022-10-11T10:41:41.874Z,20.08
2022-10-11T10:44:27.153Z,20.06
2022-10-11T10:47:22.679Z,20.05
2022-10-11T10:50:44.389Z,20.03
2022-10-11T10:53:40.765Z,20.03
2022-10-11T10:56:50.200Z,20.02
2022-10-11T11:00:01.770Z,20.04
2022-10-11T11:02:53.233Z,20.04
2022-10-11T11:05:52.725Z,20.03
2022-10-11T11:08:53.130Z,20.02
2022-10-11T11:11:53.708Z,20.03
2022-10-11T11:14:55.378Z,20.03
2022-10-11T11:18:18.387Z,20.02
2022-10-11T11:21:13.084Z,20.03
2022-10-11T11:24:01.359Z,20.05
2022-10-11T11:27:10.200Z,20.05
2022-10-11T11:30:13.647Z,20.05
2022-10-11T11:33:18.980Z,20.05
2022-10-11T11:36:13.655Z,20.05
2022-10-11T11:39:02.742Z,20.04
2022-10-11T11:42:04.468Z,20.04
2022-10-11T11:44:51.716Z,20.04
2022-10-11T11:47:46.215Z,20.06
2022-10-11T11:50:43.800Z,20.05
2022-10-11T11:53:59.195Z,20.06
2022-10-11T11:56:44.715Z,20.05
2022-10-11T11:59:55.184Z,20.06
2022-10-11T12:02:51.616Z,20.04
2022-10-11T12:05:37.319Z,20.04
2022-10-11T12:08:30.932Z,20.04
2022-10-11T12:11:25.671Z,20.04
2022-10-11T12:14:16.403Z,20.04
2022-10-11T12:17:07.203Z,20.03
2022-10-11T12:20:09.648Z,20.04
2022-10-11T12:23:19.939Z,20.00
2022-10-11T12:26:27.370Z,19.96
2022-10-11T12:29:20.139Z,19.96
2022-10-11T12:32:06.549Z,19.98
2022-10-11T12:35:30.731Z,19.96
2022-10-11T12:38:22.127Z,19.96
2022-10-11T12:41:10.743Z,19.94
2022-10-11T12:44:24.121Z,19.98
2022-10-11T12:47:34.539Z,19.94
2022-10-11T12:50:40.436Z,19.94
2022-10-11T12:53:42.758Z,19.93
2022-10-11T12:56:49.833Z,19.93
2022-10-11T12:59:41.536Z,19.92
2022-10-11T13:02:35.932Z,19.93
2022-10-11T13:05:35.947Z,19.93
2022-10-11T13:08:31.454Z,19.94
2022-10-11T13:11:21.231Z,19.94
2022-10-11T13:14:11.933Z,19.93
2022-10-11T13:17:06.770Z,19.93
2022-10-11T13:20:00.818Z,19.93
2022-10-11T13:22:49.961Z,19.96
2022-10-11T13:25:38.769Z,19.92
2022-10-11T13:28:25.296Z,19.91
2022-10-11T13:31:11.024Z,19.92
2022-10-11T13:33:59.270Z,19.92
2022-10-11T13:36:44.608Z,19.91
2022-10-11T13:39:35.333Z,19.91
2022-10-11T13:42:28.099Z,19.90
2022-10-11T13:45:14.561Z,19.88
2022-10-11T13:47:59.786Z,19.89
2022-10-11T13:50:52.306Z,19.87
2022-10-11T13:53:37.755Z,19.86
2022-10-11T13:56:23.128Z,19.91
2022-10-11T13:59:17.802Z,19.90
2022-10-11T14:02:04.483Z,19.89
2022-10-11T14:04:50.138Z,19.90
2022-10-11T14:07:39.230Z,19.95
2022-10-11T14:10:24.733Z,20.00
2022-10-11T14:13:29.288Z,20.03
2022-10-11T14:16:20.758Z,20.04
2022-10-11T14:19:11.202Z,20.06
2022-10-11T14:21:56.825Z,20.08
2022-10-11T14:24:43.216Z,20.12
2022-10-11T14:27:28.892Z,20.17
2022-10-11T14:30:25.515Z,20.19
2022-10-11T14:33:12.154Z,20.20
2022-10-11T14:35:57.614Z,20.22
2022-10-11T14:38:43.017Z,20.22
2022-10-11T14:41:28.282Z,20.23
2022-10-11T14:44:14.646Z,20.26
2022-10-11T14:47:01.507Z,20.26
2022-10-11T14:49:46.885Z,20.25
2022-10-11T14:52:32.763Z,20.27
2022-10-11T14:55:18.253Z,20.28
2022-10-11T14:58:04.577Z,20.30
2022-10-11T15:00:50.084Z,20.32
2022-10-11T15:03:35.459Z,20.33
2022-10-11T15:06:24.321Z,20.35
2022-10-11T15:09:10.335Z,20.35
2022-10-11T15:11:56.552Z,20.34
2022-10-11T15:14:41.793Z,20.37
2022-10-11T15:17:26.936Z,20.38
2022-10-11T15:20:24.099Z,20.38
2022-10-11T15:23:10.468Z,20.40
2022-10-11T15:25:56.228Z,20.42
2022-10-11T15:28:42.265Z,20.45
2022-10-11T15:31:27.771Z,20.45
2022-10-11T15:34:13.252Z,20.46
2022-10-11T15:36:58.473Z,20.46
2022-10-11T15:39:43.960Z,20.47
2022-10-11T15:42:29.238Z,20.44
2022-10-11T15:45:16.261Z,20.47
2022-10-11T15:48:02.875Z,20.48
2022-10-11T15:50:50.124Z,20.48
2022-10-11T15:53:35.774Z,20.48
2022-10-11T15:56:21.269Z,20.47
2022-10-11T15:59:06.379Z,20.49
2022-10-11T16:01:52.519Z,20.50
2022-10-11T16:04:38.235Z,20.50
2022-10-11T16:07:23.528Z,20.50
2022-10-11T16:10:09.596Z,20.52
2022-10-11T16:12:56.012Z,20.51
2022-10-11T16:15:43.368Z,20.52
2022-10-11T16:18:34.881Z,20.50
2022-10-11T16:21:23.963Z,20.51
2022-10-11T16:24:09.497Z,20.51
2022-10-11T16:26:54.830Z,20.54
2022-10-11T16:29:40.223Z,20.55
2022-10-11T16:32:25.506Z,20.57
2022-10-11T16:35:12.997Z,20.58
2022-10-11T16:37:58.291Z,20.63
2022-10-11T16:40:43.816Z,20.65
2022-10-11T16:43:29.456Z,20.64
2022-10-11T16:46:14.902Z,20.67
2022-10-11T16:49:01.633Z,20.68
2022-10-11T16:51:47.144Z,20.67
2022-10-11T16:54:32.506Z,20.68
2022-10-11T16:57:19.974Z,20.69
2022-10-11T17:00:09.665Z,20.69
2022-10-11T17:02:55.271Z,20.69
2022-10-11T17:05:40.876Z,20.71
2022-10-11T17:08:26.912Z,20.73
2022-10-11T17:11:12.472Z,20.73
2022-10-11T17:14:00.624Z,20.75
2022-10-11T17:16:46.159Z,20.77
2022-10-11T17:19:32.594Z,20.80
2022-10-11T17:22:21.850Z,20.77
2022-10-11T17:25:08.179Z,20.81
2022-10-11T17:27:56.610Z,20.82
2022-10-11T17:30:43.896Z,20.83
2022-10-11T17:33:30.535Z,20.83
2022-10-11T17:36:23.964Z,20.83
2022-10-11T17:39:17.096Z,20.82
2022-10-11T17:42:07.401Z,20.79
2022-10-11T17:44:53.222Z,20.77
2022-10-11T17:47:39.109Z,20.76
2022-10-11T17:50:24.927Z,20.71
2022-10-11T17:53:10.579Z,20.67
2022-10-11T17:55:59.056Z,20.68
2022-10-11T17:58:45.568Z,20.66
2022-10-11T18:01:31.086Z,20.65
2022-10-11T18:04:19.338Z,20.62
2022-10-11T18:07:05.296Z,20.63
2022-10-11T18:09:50.918Z,20.63
2022-10-11T18:12:36.226Z,20.61
2022-10-11T18:15:22.025Z,20.59
2022-10-11T18:18:07.301Z,20.57
2022-10-11T18:20:53.452Z,20.56
2022-10-11T18:23:39.422Z,20.57
2022-10-11T18:26:30.157Z,20.52
2022-10-11T18:29:16.408Z,20.49
2022-10-11T18:32:02.148Z,20.46
2022-10-11T18:34:47.979Z,20.44
2022-10-11T18:37:34.023Z,20.39
2022-10-11T18:40:19.665Z,20.41
2022-10-11T18:43:05.546Z,20.37
2022-10-11T18:45:51.323Z,20.35
2022-10-11T18:48:40.959Z,20.36
2022-10-11T18:51:28.543Z,20.34
2022-10-11T18:54:18.510Z,20.29
2022-10-11T18:57:06.783Z,20.28
2022-10-11T18:59:53.229Z,20.27
2022-10-11T19:02:38.643Z,20.27
2022-10-11T19:05:23.947Z,20.27
2022-10-11T19:08:09.207Z,20.24
2022-10-11T19:10:54.511Z,20.24
2022-10-11T19:13:40.182Z,20.24
2022-10-11T19:16:29.427Z,20.22
2022-10-11T19:19:14.904Z,20.20
2022-10-11T19:22:02.133Z,20.18
2022-10-11T19:24:47.400Z,20.12
2022-10-11T19:27:32.803Z,20.08
2022-10-11T19:30:18.181Z,20.07
2022-10-11T19:33:04.781Z,20.07
2022-10-11T19:35:55.459Z,20.03
2022-10-11T19:38:44.562Z,20.05
2022-10-11T19:41:29.723Z,20.02
2022-10-11T19:44:16.016Z,20.02
2022-10-11T19:47:05.284Z,20.01
2022-10-11T19:49:50.541Z,19.99
2022-10-11T19:52:35.864Z,19.99
2022-10-11T19:55:21.140Z,20.00
2022-10-11T19:58:08.387Z,19.98
2022-10-11T20:01:01.965Z,19.98
2022-10-11T20:03:53.013Z,19.98
2022-10-11T20:06:41.397Z,19.96
2022-10-11T20:09:30.860Z,19.97
2022-10-11T20:12:16.586Z,19.96
2022-10-11T20:15:01.843Z,19.96
2022-10-11T20:17:50.228Z,19.96
2022-10-11T20:20:35.924Z,19.94
2022-10-11T20:23:27.250Z,19.96
2022-10-11T20:26:16.308Z,19.92
2022-10-11T20:29:01.694Z,19.93
2022-10-11T20:31:46.949Z,19.93
2022-10-11T20:34:32.243Z,19.92
2022-10-11T20:37:17.657Z,19.90
2022-10-11T20:40:06.448Z,19.91
2022-10-11T20:42:52.175Z,19.89
2022-10-11T20:45:37.448Z,19.90
2022-10-11T20:48:22.712Z,19.88
2022-10-11T20:51:10.254Z,19.88
2022-10-11T20:53:56.535Z,19.88
2022-10-11T20:56:41.984Z,19.86
2022-10-11T20:59:27.528Z,19.88
2022-10-11T21:02:18.030Z,19.86
2022-10-11T21:05:05.494Z,19.85
2022-10-11T21:07:51.013Z,19.87
2022-10-11T21:10:36.436Z,19.85
2022-10-11T21:13:22.674Z,19.84
2022-10-11T21:16:14.588Z,19.85
2022-10-11T21:19:01.307Z,19.85
2022-10-11T21:21:52.519Z,19.85
2022-10-11T21:24:38.985Z,19.84
2022-10-11T21:27:27.087Z,19.84
2022-10-11T21:30:12.614Z,19.84
2022-10-11T21:32:57.983Z,19.83
2022-10-11T21:35:43.550Z,19.82
2022-10-11T21:38:29.179Z,19.83
2022-10-11T21:41:17.580Z,19.83
2022-10-11T21:44:03.079Z,19.83
2022-10-11T21:47:06.165Z,19.82
2022-10-11T21:49:52.240Z,19.81
2022-10-11T21:52:37.764Z,19.80
2022-10-11T21:55:23.241Z,19.79
2022-10-11T21:58:08.563Z,19.81
2022-10-11T22:00:53.913Z,19.79
2022-10-11T22:03:39.164Z,19.78
2022-10-11T22:06:24.244Z,19.80
2022-10-11T22:09:10.319Z,19.77
2022-10-11T22:11:56.793Z,19.78
2022-10-11T22:14:42.083Z,19.77
2022-10-11T22:17:27.310Z,19.77
2022-10-11T22:20:12.522Z,19.77
2022-10-11T22:22:57.731Z,19.76
2022-10-11T22:25:42.923Z,19.76
2022-10-11T22:28:28.210Z,19.76
2022-10-11T22:31:14.931Z,19.75
2022-10-11T22:34:01.276Z,19.76
2022-10-11T22:36:47.603Z,19.75
2022-10-11T22:39:33.018Z,19.75
2022-10-11T22:42:18.263Z,19.75
2022-10-11T22:45:04.323Z,19.75
2022-10-11T22:47:49.772Z,19.75
2022-10-11T22:50:35.089Z,19.75
2022-10-11T22:53:20.604Z,19.73
2022-10-11T22:56:06.682Z,19.73
2022-10-11T22:58:52.000Z,19.71
2022-10-11T23:01:37.331Z,19.72
2022-10-11T23:04:22.654Z,19.71
2022-10-11T23:07:07.867Z,19.71
2022-10-11T23:09:53.176Z,19.71
2022-10-11T23:12:38.755Z,19.72
2022-10-11T23:15:24.302Z,19.71
2022-10-11T23:18:10.038Z,19.71
2022-10-11T23:20:55.352Z,19.70
2022-10-11T23:23:40.833Z,19.70
2022-10-11T23:26:26.120Z,19.70
2022-10-11T23:29:11.320Z,19.70
2022-10-11T23:31:56.713Z,19.69
2022-10-11T23:34:42.067Z,19.70
2022-10-11T23:37:27.294Z,19.68
2022-10-11T23:40:12.675Z,19.69
2022-10-11T23:42:58.050Z,19.69
2022-10-11T23:45:45.210Z,19.69
2022-10-11T23:48:30.711Z,19.69
2022-10-11T23:51:16.208Z,19.68
2022-10-11T23:54:01.339Z,19.69
2022-10-11T23:56:46.630Z,19.67
2022-10-11T23:59:31.884Z,19.68
